createdAt,value
2023-01-07T00:01:14.690Z,4.80
2023-01-07T00:03:41.960Z,4.80
2023-01-07T00:06:14.694Z,4.80
2023-01-07T00:08:43.641Z,4.80
2023-01-07T00:11:16.461Z,4.80
2023-01-07T00:13:44.421Z,4.80
2023-01-07T00:16:16.611Z,4.80
2023-01-07T00:18:43.800Z,4.80
2023-01-07T00:21:13.382Z,4.80
2023-01-07T00:23:41.412Z,4.80
2023-01-07T00:26:15.375Z,4.80
2023-01-07T00:28:43.462Z,4.80
2023-01-07T00:31:16.009Z,4.80
2023-01-07T00:34:06.319Z,4.70
2023-01-07T00:36:39.841Z,4.80
2023-01-07T00:39:13.497Z,4.80
2023-01-07T00:41:40.876Z,4.80
2023-01-07T00:44:07.866Z,4.80
2023-01-07T00:46:34.962Z,4.80
2023-01-07T00:49:02.006Z,4.80
2023-01-07T00:51:28.756Z,4.80
2023-01-07T00:53:55.548Z,4.80
2023-01-07T00:56:22.226Z,4.80
2023-01-07T00:58:48.907Z,4.80
2023-01-07T01:01:16.257Z,4.80
2023-01-07T01:03:42.981Z,4.80
2023-01-07T01:06:15.811Z,4.90
2023-01-07T01:08:44.210Z,4.90
2023-01-07T01:11:13.884Z,4.90
2023-01-07T01:13:41.375Z,4.90
2023-01-07T01:16:16.158Z,4.90
2023-01-07T01:18:43.825Z,4.90
2023-01-07T01:21:13.147Z,4.90
2023-01-07T01:23:40.378Z,4.90
2023-01-07T01:26:13.468Z,4.90
2023-01-07T01:28:40.694Z,4.90
2023-01-07T01:31:09.287Z,5.00
2023-01-07T01:33:44.031Z,5.00
2023-01-07T01:36:12.927Z,4.90
2023-01-07T01:38:40.147Z,5.00
2023-01-07T01:41:07.431Z,5.00
2023-01-07T01:43:40.792Z,5.00
2023-01-07T01:46:17.478Z,4.90
2023-01-07T01:49:02.573Z,5.00
2023-01-07T01:51:34.652Z,5.00
2023-01-07T01:54:05.166Z,5.00
2023-01-07T01:56:39.380Z,5.00
2023-01-07T01:59:10.741Z,5.00
2023-01-07T02:01:38.219Z,5.00
2023-01-07T02:04:15.140Z,5.00
2023-01-07T02:06:56.130Z,5.00
2023-01-07T02:09:24.429Z,5.10
2023-01-07T02:11:54.182Z,5.00
2023-01-07T02:14:47.068Z,5.00
2023-01-07T02:17:23.257Z,5.10
2023-01-07T02:19:58.963Z,5.00
2023-01-07T02:23:00.862Z,5.00
2023-01-07T02:25:50.639Z,5.00
2023-01-07T02:28:54.593Z,5.10
2023-01-07T02:31:41.157Z,5.00
2023-01-07T02:34:20.711Z,5.00
2023-01-07T02:37:02.750Z,5.00
2023-01-07T02:39:53.972Z,5.00
2023-01-07T02:42:47.791Z,5.00
2023-01-07T02:45:36.122Z,5.00
2023-01-07T02:48:08.351Z,5.00
2023-01-07T02:50:35.168Z,5.00
2023-01-07T02:53:01.786Z,5.00
2023-01-07T02:55:52.678Z,5.00
2023-01-07T02:58:49.398Z,5.00
2023-01-07T03:01:46.785Z,5.00
2023-01-07T03:04:18.365Z,5.00
2023-01-07T03:07:03.224Z,5.00
2023-01-07T03:09:44.209Z,5.00
2023-01-07T03:12:30.352Z,5.00
2023-01-07T03:15:08.500Z,5.00
2023-01-07T03:17:42.351Z,5.00
2023-01-07T03:20:11.539Z,5.00
2023-01-07T03:22:40.271Z,5.00
2023-01-07T03:25:07.423Z,5.00
2023-01-07T03:27:36.444Z,5.00
2023-01-07T03:30:08.933Z,5.00
2023-01-07T03:32:44.523Z,5.00
2023-01-07T03:35:11.402Z,5.00
2023-01-07T03:37:40.803Z,5.00
2023-01-07T03:40:10.642Z,5.00
2023-01-07T03:42:40.590Z,5.00
2023-01-07T03:45:19.257Z,5.00
2023-01-07T03:47:48.652Z,5.00
2023-01-07T03:50:16.831Z,5.00
2023-01-07T03:52:45.413Z,5.00
2023-01-07T03:55:12.598Z,5.00
2023-01-07T03:57:39.439Z,5.00
2023-01-07T04:00:09.315Z,5.00
2023-01-07T04:02:45.034Z,4.90
2023-01-07T04:05:21.379Z,4.90
2023-01-07T04:07:48.672Z,4.90
2023-01-07T04:10:15.619Z,4.80
2023-01-07T04:12:42.363Z,4.80
2023-01-07T04:15:09.333Z,4.80
2023-01-07T04:17:36.054Z,4.80
2023-01-07T04:20:03.031Z,4.70
2023-01-07T04:22:30.417Z,4.70
2023-01-07T04:24:58.022Z,4.70
2023-01-07T04:27:24.854Z,4.60
2023-01-07T04:29:52.593Z,4.50
2023-01-07T04:32:19.996Z,4.50
2023-01-07T04:34:46.690Z,4.50
2023-01-07T04:37:13.775Z,4.40
2023-01-07T04:39:40.762Z,4.30
2023-01-07T04:42:07.402Z,4.20
2023-01-07T04:44:34.157Z,4.20
2023-01-07T04:47:00.931Z,4.10
2023-01-07T04:49:27.613Z,4.10
2023-01-07T04:51:55.307Z,4.00
2023-01-07T04:54:22.280Z,4.00
2023-01-07T04:56:49.539Z,3.90
2023-01-07T04:59:17.011Z,3.80
2023-01-07T05:01:43.907Z,3.80
2023-01-07T05:04:11.054Z,3.70
2023-01-07T05:06:38.164Z,3.70
2023-01-07T05:09:05.680Z,3.60
2023-01-07T05:11:33.015Z,3.60
2023-01-07T05:14:01.186Z,3.50
2023-01-07T05:16:31.436Z,3.50
2023-01-07T05:19:01.520Z,3.40
2023-01-07T05:21:30.654Z,3.40
2023-01-07T05:23:57.492Z,3.30
2023-01-07T05:26:24.239Z,3.30
2023-01-07T05:28:52.482Z,3.20
2023-01-07T05:31:20.448Z,3.10
2023-01-07T05:33:47.216Z,3.10
2023-01-07T05:36:14.300Z,3.00
2023-01-07T05:38:41.214Z,2.90
2023-01-07T05:41:08.701Z,2.90
2023-01-07T05:43:36.327Z,2.80
2023-01-07T05:46:03.233Z,2.80
2023-01-07T05:48:30.024Z,2.70
2023-01-07T05:50:56.634Z,2.70
2023-01-07T05:53:23.295Z,2.70
2023-01-07T05:55:56.130Z,2.60
2023-01-07T05:58:22.981Z,2.60
2023-01-07T06:00:49.809Z,2.50
2023-01-07T06:03:16.564Z,2.40
2023-01-07T06:05:43.229Z,2.40
2023-01-07T06:08:09.882Z,2.40
2023-01-07T06:10:36.919Z,2.40
2023-01-07T06:13:03.740Z,2.30
2023-01-07T06:15:31.163Z,2.30
2023-01-07T06:17:57.971Z,2.20
2023-01-07T06:20:24.642Z,2.20
2023-01-07T06:22:51.358Z,2.20
2023-01-07T06:25:18.067Z,2.20
2023-01-07T06:27:44.715Z,2.20
2023-01-07T06:30:11.994Z,2.10
2023-01-07T06:32:40.468Z,2.10
2023-01-07T06:35:08.845Z,2.10
2023-01-07T06:37:35.535Z,2.10
2023-01-07T06:40:02.239Z,2.10
2023-01-07T06:42:29.015Z,2.00
2023-01-07T06:44:55.898Z,2.00
2023-01-07T06:47:23.114Z,1.90
2023-01-07T06:49:49.790Z,1.90
2023-01-07T06:52:16.389Z,1.80
2023-01-07T06:54:43.170Z,1.80
2023-01-07T06:57:09.729Z,1.80
2023-01-07T06:59:36.339Z,1.70
2023-01-07T07:02:03.084Z,1.70
2023-01-07T07:04:29.785Z,1.70
2023-01-07T07:06:56.524Z,1.70
2023-01-07T07:09:23.058Z,1.70
2023-01-07T07:11:49.688Z,1.70
2023-01-07T07:14:16.372Z,1.70
2023-01-07T07:16:43.030Z,1.70
2023-01-07T07:19:09.585Z,1.70
2023-01-07T07:21:36.191Z,1.70
2023-01-07T07:24:02.985Z,1.60
2023-01-07T07:26:29.655Z,1.70
2023-01-07T07:28:56.260Z,1.70
2023-01-07T07:31:23.032Z,1.60
2023-01-07T07:33:50.887Z,1.70
2023-01-07T07:36:17.587Z,1.70
2023-01-07T07:38:44.259Z,1.70
2023-01-07T07:41:10.850Z,1.70
2023-01-07T07:43:37.831Z,1.60
2023-01-07T07:46:05.021Z,1.70
2023-01-07T07:48:31.702Z,1.70
2023-01-07T07:50:58.516Z,1.70
2023-01-07T07:53:25.278Z,1.70
2023-01-07T07:55:53.161Z,1.80
2023-01-07T07:58:19.998Z,1.80
2023-01-07T08:00:46.755Z,1.80
2023-01-07T08:03:13.496Z,1.90
2023-01-07T08:05:41.174Z,1.90
2023-01-07T08:08:11.421Z,2.00
2023-01-07T08:10:38.973Z,2.10
2023-01-07T08:13:06.121Z,2.10
2023-01-07T08:15:32.782Z,2.20
2023-01-07T08:18:05.483Z,2.20
2023-01-07T08:20:33.072Z,2.30
2023-01-07T08:23:00.720Z,2.30
2023-01-07T08:25:29.559Z,2.40
2023-01-07T08:27:56.821Z,2.40
2023-01-07T08:30:23.698Z,2.50
2023-01-07T08:32:50.413Z,2.60
2023-01-07T08:35:17.570Z,2.70
2023-01-07T08:37:44.812Z,2.70
2023-01-07T08:40:12.916Z,2.80
2023-01-07T08:42:40.943Z,2.80
2023-01-07T08:45:09.681Z,2.90
2023-01-07T08:47:36.458Z,3.00
2023-01-07T08:50:04.317Z,3.00
2023-01-07T08:52:31.005Z,3.10
2023-01-07T08:54:57.716Z,3.10
2023-01-07T08:57:24.500Z,3.20
2023-01-07T08:59:51.244Z,3.30
2023-01-07T09:02:19.675Z,3.30
2023-01-07T09:04:46.519Z,3.30
2023-01-07T09:07:13.113Z,3.40
2023-01-07T09:09:39.984Z,3.40
2023-01-07T09:12:10.033Z,3.50
2023-01-07T09:14:37.711Z,3.50
2023-01-07T09:17:04.481Z,3.60
2023-01-07T09:19:31.225Z,3.60
2023-01-07T09:21:57.909Z,3.70
2023-01-07T09:24:24.834Z,3.70
2023-01-07T09:26:51.513Z,3.80
2023-01-07T09:29:18.414Z,3.80
2023-01-07T09:31:45.401Z,3.80
2023-01-07T09:34:12.207Z,3.90
2023-01-07T09:36:39.073Z,4.00
2023-01-07T09:39:05.789Z,3.90
2023-01-07T09:41:57.959Z,4.00
2023-01-07T09:44:38.636Z,4.00
2023-01-07T09:47:06.412Z,4.00
2023-01-07T09:49:33.256Z,4.10
2023-01-07T09:52:12.620Z,4.10
2023-01-07T09:54:40.799Z,4.20
2023-01-07T09:57:14.488Z,4.20
2023-01-07T09:59:41.221Z,4.30
2023-01-07T10:02:45.885Z,4.30
2023-01-07T10:05:34.752Z,4.40
2023-01-07T10:08:29.067Z,4.50
2023-01-07T10:11:13.098Z,4.50
2023-01-07T10:14:07.620Z,4.60
2023-01-07T10:16:39.891Z,4.60
2023-01-07T10:19:36.822Z,4.70
2023-01-07T10:22:16.219Z,4.70
2023-01-07T10:24:47.135Z,4.80
2023-01-07T10:27:16.399Z,4.80
2023-01-07T10:29:50.756Z,4.90
2023-01-07T10:32:20.785Z,5.00
2023-01-07T10:34:49.931Z,5.00
2023-01-07T10:37:28.141Z,5.00
2023-01-07T10:40:25.063Z,5.10
2023-01-07T10:43:29.769Z,5.10
2023-01-07T10:46:30.776Z,5.10
2023-01-07T10:49:27.835Z,5.10
2023-01-07T10:52:18.151Z,5.10
2023-01-07T10:55:14.928Z,5.10
2023-01-07T10:57:41.707Z,5.10
2023-01-07T11:00:12.317Z,5.10
2023-01-07T11:02:47.712Z,5.10
2023-01-07T11:05:15.077Z,5.10
2023-01-07T11:07:48.584Z,5.20
2023-01-07T11:10:25.771Z,5.20
2023-01-07T11:13:06.609Z,5.20
2023-01-07T11:15:44.162Z,5.20
2023-01-07T11:18:31.826Z,5.20
2023-01-07T11:21:00.337Z,5.20
2023-01-07T11:23:31.538Z,5.20
2023-01-07T11:26:32.148Z,5.20
2023-01-07T11:29:15.434Z,5.20
2023-01-07T11:32:03.774Z,5.30
2023-01-07T11:34:35.600Z,5.30
2023-01-07T11:37:03.611Z,5.30
2023-01-07T11:39:35.599Z,5.40
2023-01-07T11:42:33.511Z,5.40
2023-01-07T11:45:20.934Z,5.40
2023-01-07T11:48:24.443Z,5.40
2023-01-07T11:50:53.918Z,5.40
2023-01-07T11:53:50.805Z,5.40
2023-01-07T11:56:20.521Z,5.40
2023-01-07T11:58:48.596Z,5.40
2023-01-07T12:01:21.513Z,5.40
2023-01-07T12:03:54.318Z,5.40
2023-01-07T12:06:28.520Z,5.50
2023-01-07T12:09:08.637Z,5.40
2023-01-07T12:11:39.079Z,5.50
2023-01-07T12:14:32.073Z,5.50
2023-01-07T12:17:18.362Z,5.60
2023-01-07T12:20:12.816Z,5.60
2023-01-07T12:23:14.681Z,5.60
2023-01-07T12:25:47.017Z,5.70
2023-01-07T12:28:18.463Z,5.70
2023-01-07T12:31:04.218Z,5.80
2023-01-07T12:33:52.453Z,5.90
2023-01-07T12:37:09.141Z,5.90
2023-01-07T12:39:41.194Z,6.00
2023-01-07T12:42:27.889Z,6.30
2023-01-07T12:45:01.559Z,6.70
2023-01-07T12:47:56.031Z,7.20
2023-01-07T12:50:31.710Z,7.70
2023-01-07T12:53:10.517Z,8.00
2023-01-07T12:55:42.574Z,8.40
2023-01-07T12:58:29.031Z,8.80
2023-01-07T13:01:11.453Z,9.10
2023-01-07T13:04:16.407Z,9.20
2023-01-07T13:06:50.729Z,9.60
2023-01-07T13:09:45.211Z,9.80
2023-01-07T13:12:43.053Z,10.00
2023-01-07T13:15:33.653Z,10.30
2023-01-07T13:18:14.573Z,10.60
2023-01-07T13:21:00.503Z,10.90
2023-01-07T13:23:48.864Z,11.00
2023-01-07T13:26:30.969Z,11.00
2023-01-07T13:29:29.148Z,10.90
2023-01-07T13:32:22.962Z,10.70
2023-01-07T13:35:18.998Z,10.50
2023-01-07T13:37:51.285Z,10.40
2023-01-07T13:40:31.155Z,10.30
2023-01-07T13:43:37.663Z,10.30
2023-01-07T13:46:13.865Z,10.40
2023-01-07T13:48:47.081Z,10.50
2023-01-07T13:51:14.086Z,10.70
2023-01-07T13:53:42.803Z,10.80
2023-01-07T13:56:38.902Z,11.00
2023-01-07T13:59:29.410Z,11.10
2023-01-07T14:02:17.043Z,11.30
2023-01-07T14:05:08.422Z,11.30
2023-01-07T14:07:50.576Z,11.20
2023-01-07T14:10:32.366Z,11.20
2023-01-07T14:13:08.107Z,11.20
2023-01-07T14:15:47.959Z,11.30
2023-01-07T14:18:30.219Z,11.40
2023-01-07T14:21:17.294Z,11.50
2023-01-07T14:24:21.789Z,11.60
2023-01-07T14:27:07.335Z,11.60
2023-01-07T14:29:46.782Z,11.70
2023-01-07T14:32:26.118Z,11.60
2023-01-07T14:34:59.627Z,11.60
2023-01-07T14:37:38.388Z,11.40
2023-01-07T14:40:27.251Z,11.20
2023-01-07T14:42:56.177Z,10.90
2023-01-07T14:45:41.173Z,10.50
2023-01-07T14:48:07.851Z,10.00
2023-01-07T14:50:51.112Z,9.50
2023-01-07T14:53:23.856Z,9.00
2023-01-07T14:56:09.159Z,8.60
2023-01-07T14:58:57.166Z,8.10
2023-01-07T15:01:26.639Z,7.70
2023-01-07T15:04:21.211Z,7.40
2023-01-07T15:06:48.653Z,7.00
2023-01-07T15:09:41.066Z,6.60
2023-01-07T15:12:36.977Z,6.40
2023-01-07T15:15:24.473Z,6.10
2023-01-07T15:17:51.264Z,6.00
2023-01-07T15:20:18.095Z,5.80
2023-01-07T15:22:55.933Z,5.60
2023-01-07T15:25:46.011Z,5.50
2023-01-07T15:28:34.485Z,5.40
2023-01-07T15:31:29.619Z,5.20
2023-01-07T15:34:14.620Z,5.00
2023-01-07T15:36:52.925Z,5.00
2023-01-07T15:39:32.112Z,4.90
2023-01-07T15:42:03.494Z,4.70
2023-01-07T15:44:41.710Z,4.70
2023-01-07T15:47:29.362Z,4.60
2023-01-07T15:49:59.759Z,4.60
2023-01-07T15:52:34.596Z,4.50
2023-01-07T15:55:30.897Z,4.40
2023-01-07T15:58:06.797Z,4.30
2023-01-07T16:00:40.975Z,4.30
2023-01-07T16:03:22.109Z,4.30
2023-01-07T16:05:53.576Z,4.20
2023-01-07T16:08:28.626Z,4.20
2023-01-07T16:11:11.959Z,4.20
2023-01-07T16:13:57.074Z,4.10
2023-01-07T16:16:31.858Z,4.00
2023-01-07T16:19:04.530Z,4.00
2023-01-07T16:21:40.558Z,4.00
2023-01-07T16:24:15.127Z,3.90
2023-01-07T16:26:46.508Z,3.90
2023-01-07T16:29:29.650Z,3.90
2023-01-07T16:32:00.845Z,3.80
2023-01-07T16:34:31.173Z,3.70
2023-01-07T16:37:01.692Z,3.70
2023-01-07T16:39:35.998Z,3.70
2023-01-07T16:42:23.585Z,3.70
2023-01-07T16:44:51.909Z,3.70
2023-01-07T16:47:24.864Z,3.70
2023-01-07T16:49:59.538Z,3.70
2023-01-07T16:52:34.694Z,3.70
2023-01-07T16:55:03.818Z,3.70
2023-01-07T16:57:42.485Z,3.70
2023-01-07T17:00:19.552Z,3.60
2023-01-07T17:02:59.527Z,3.60
2023-01-07T17:05:31.589Z,3.60
2023-01-07T17:08:17.036Z,3.60
2023-01-07T17:10:56.484Z,3.50
2023-01-07T17:13:25.341Z,3.40
2023-01-07T17:16:16.415Z,3.40
2023-01-07T17:18:45.526Z,3.40
2023-01-07T17:21:44.077Z,3.40
2023-01-07T17:24:31.766Z,3.40
2023-01-07T17:27:04.696Z,3.40
2023-01-07T17:29:36.451Z,3.30
2023-01-07T17:32:05.671Z,3.30
2023-01-07T17:34:34.254Z,3.30
2023-01-07T17:37:02.195Z,3.30
2023-01-07T17:39:30.828Z,3.20
2023-01-07T17:42:17.640Z,3.20
2023-01-07T17:44:48.912Z,3.20
2023-01-07T17:47:22.835Z,3.20
2023-01-07T17:49:51.543Z,3.20
2023-01-07T17:52:19.887Z,3.20
2023-01-07T17:54:48.727Z,3.20
2023-01-07T17:57:18.287Z,3.10
2023-01-07T17:59:48.648Z,3.10
2023-01-07T18:02:19.813Z,3.10
2023-01-07T18:04:48.882Z,3.10
2023-01-07T18:07:17.783Z,3.10
2023-01-07T18:09:48.806Z,3.20
2023-01-07T18:12:31.878Z,3.20
2023-01-07T18:15:01.871Z,3.20
2023-01-07T18:17:35.299Z,3.20
2023-01-07T18:20:05.537Z,3.20
2023-01-07T18:22:34.740Z,3.20
2023-01-07T18:25:03.641Z,3.20
2023-01-07T18:27:31.880Z,3.20
2023-01-07T18:30:00.252Z,3.20
2023-01-07T18:32:29.278Z,3.20
2023-01-07T18:34:57.936Z,3.20
2023-01-07T18:37:26.343Z,3.20
2023-01-07T18:39:54.869Z,3.20
2023-01-07T18:42:24.683Z,3.10
2023-01-07T18:44:52.246Z,3.20
2023-01-07T18:47:18.871Z,3.20
2023-01-07T18:49:45.570Z,3.20
2023-01-07T18:52:13.438Z,3.10
2023-01-07T18:54:41.243Z,3.10
2023-01-07T18:57:08.080Z,3.10
2023-01-07T18:59:34.830Z,3.10
2023-01-07T19:02:01.735Z,3.10
2023-01-07T19:04:28.851Z,3.10
2023-01-07T19:06:55.624Z,3.10
2023-01-07T19:09:23.040Z,3.10
2023-01-07T19:11:49.713Z,3.10
2023-01-07T19:14:16.354Z,3.20
2023-01-07T19:16:43.339Z,3.20
2023-01-07T19:19:10.231Z,3.20
2023-01-07T19:21:36.857Z,3.20
2023-01-07T19:24:04.600Z,3.30
2023-01-07T19:26:31.361Z,3.30
2023-01-07T19:28:58.008Z,3.30
2023-01-07T19:31:24.892Z,3.30
2023-01-07T19:33:51.736Z,3.40
2023-01-07T19:36:18.662Z,3.40
2023-01-07T19:38:47.557Z,3.40
2023-01-07T19:41:19.329Z,3.40
2023-01-07T19:43:46.736Z,3.40
2023-01-07T19:46:15.266Z,3.40
2023-01-07T19:48:42.721Z,3.40
2023-01-07T19:51:10.484Z,3.40
2023-01-07T19:53:37.528Z,3.30
2023-01-07T19:56:07.819Z,3.30
2023-01-07T19:58:35.166Z,3.30
2023-01-07T20:01:13.014Z,3.30
2023-01-07T20:03:40.387Z,3.30
2023-01-07T20:06:14.862Z,3.20
2023-01-07T20:08:41.922Z,3.20
2023-01-07T20:11:08.897Z,3.20
2023-01-07T20:13:36.920Z,3.20
2023-01-07T20:16:05.178Z,3.20
2023-01-07T20:18:36.147Z,3.20
2023-01-07T20:21:02.832Z,3.20
2023-01-07T20:23:29.457Z,3.20
2023-01-07T20:25:56.314Z,3.20
2023-01-07T20:28:23.189Z,3.20
2023-01-07T20:30:50.059Z,3.10
2023-01-07T20:33:17.078Z,3.10
2023-01-07T20:35:44.050Z,3.10
2023-01-07T20:38:11.387Z,3.20
2023-01-07T20:40:42.524Z,3.20
2023-01-07T20:43:09.849Z,3.30
2023-01-07T20:45:38.237Z,3.30
2023-01-07T20:48:05.328Z,3.30
2023-01-07T20:50:35.612Z,3.40
2023-01-07T20:53:02.561Z,3.40
2023-01-07T20:55:29.271Z,3.30
2023-01-07T20:57:56.003Z,3.30
2023-01-07T21:00:22.695Z,3.30
2023-01-07T21:02:49.548Z,3.30
2023-01-07T21:05:20.181Z,3.30
2023-01-07T21:07:47.643Z,3.20
2023-01-07T21:10:14.983Z,3.20
2023-01-07T21:12:43.039Z,3.20
2023-01-07T21:15:13.993Z,3.20
2023-01-07T21:17:41.399Z,3.20
2023-01-07T21:20:10.604Z,3.10
2023-01-07T21:22:38.815Z,3.10
2023-01-07T21:25:10.086Z,3.10
2023-01-07T21:27:40.183Z,3.10
2023-01-07T21:30:08.549Z,3.10
2023-01-07T21:32:35.422Z,3.20
2023-01-07T21:35:02.230Z,3.20
2023-01-07T21:37:29.404Z,3.20
2023-01-07T21:39:56.282Z,3.20
2023-01-07T21:42:23.018Z,3.30
2023-01-07T21:44:49.719Z,3.30
2023-01-07T21:47:16.602Z,3.30
2023-01-07T21:49:43.730Z,3.20
2023-01-07T21:52:10.524Z,3.20
2023-01-07T21:54:37.112Z,3.20
2023-01-07T21:57:03.953Z,3.20
2023-01-07T21:59:30.936Z,3.20
2023-01-07T22:01:57.923Z,3.20
2023-01-07T22:04:24.821Z,3.20
2023-01-07T22:06:51.803Z,3.10
2023-01-07T22:09:18.509Z,3.10
2023-01-07T22:11:45.498Z,3.00
2023-01-07T22:14:15.295Z,3.00
2023-01-07T22:16:42.917Z,3.00
2023-01-07T22:19:12.623Z,3.00
2023-01-07T22:21:39.379Z,3.00
2023-01-07T22:24:06.951Z,3.00
2023-01-07T22:26:33.902Z,3.00
2023-01-07T22:29:03.290Z,2.90
2023-01-07T22:31:36.781Z,2.90
2023-01-07T22:34:05.512Z,3.00
2023-01-07T22:36:39.568Z,3.00
2023-01-07T22:39:15.435Z,3.00
2023-01-07T22:41:42.370Z,3.10
2023-01-07T22:44:13.063Z,3.00
2023-01-07T22:46:42.613Z,3.00
2023-01-07T22:49:09.324Z,3.00
2023-01-07T22:51:38.800Z,3.00
2023-01-07T22:54:06.342Z,3.00
2023-01-07T22:56:34.142Z,3.00
2023-01-07T22:59:01.097Z,3.00
2023-01-07T23:01:27.957Z,3.00
2023-01-07T23:03:54.809Z,3.00
2023-01-07T23:06:21.477Z,3.00
2023-01-07T23:08:48.153Z,3.00
2023-01-07T23:11:33.628Z,3.00
2023-01-07T23:14:00.372Z,3.00
2023-01-07T23:16:26.990Z,3.00
2023-01-07T23:18:53.873Z,3.00
2023-01-07T23:21:20.646Z,3.00
2023-01-07T23:23:47.435Z,3.10
2023-01-07T23:26:14.644Z,3.20
2023-01-07T23:28:41.663Z,3.20
2023-01-07T23:31:09.981Z,3.30
2023-01-07T23:33:36.740Z,3.30
2023-01-07T23:36:07.492Z,3.30
2023-01-07T23:38:35.162Z,3.30
2023-01-07T23:41:04.008Z,3.20
2023-01-07T23:43:31.576Z,3.30
2023-01-07T23:46:00.077Z,3.20
2023-01-07T23:48:28.078Z,3.20
2023-01-07T23:50:55.851Z,3.20
2023-01-07T23:53:23.239Z,3.10
2023-01-07T23:55:54.880Z,3.10
2023-01-07T23:58:23.279Z,3.00
